Time;durP1;ratioP1;P1;durP2;ratioP2;P2;SDS_P1;SDS_P2;PMS_P1;PMS_P2;Temp;Humidity;BMP_temperature;BMP_pressure;BME280_temperature;BME280_humidity;BME280_pressure;Samples;Min_cycle;Max_cycle;Signal;HPM_P1;HPM_P2
2023/03/18 00:01:10;;;;;;;13.53;6.93;;;;;;;7.30;100.00;95866.28;4966926;28;20289;-71
2023/03/18 00:03:37;;;;;;;17.40;7.47;;;;;;;7.25;100.00;95867.78;4966396;28;20216;-71
2023/03/18 00:06:08;;;;;;;17.90;6.20;;;;;;;7.20;100.00;95871.88;4969065;28;20207;-71
2023/03/18 00:08:35;;;;;;;16.67;7.30;;;;;;;7.06;100.00;95873.34;4969994;28;20238;-72
2023/03/18 00:11:04;;;;;;;19.33;7.43;;;;;;;7.13;100.00;95869.09;4969970;28;20255;-71
2023/03/18 00:13:32;;;;;;;16.67;6.90;;;;;;;7.15;100.00;95876.78;4969982;28;20204;-71
2023/03/18 00:15:59;;;;;;;18.00;7.47;;;;;;;7.15;100.00;95877.59;4970104;28;20207;-72
2023/03/18 00:18:26;;;;;;;13.47;6.77;;;;;;;7.16;100.00;95878.44;4970106;28;20647;-71
2023/03/18 00:20:52;;;;;;;19.33;7.40;;;;;;;7.20;100.00;95871.88;4969852;28;20745;-71
2023/03/18 00:23:21;;;;;;;18.10;7.40;;;;;;;7.33;100.00;95876.44;4969612;28;20274;-72
2023/03/18 00:25:51;;;;;;;20.27;7.40;;;;;;;7.36;100.00;95873.50;4969570;28;20287;-72
2023/03/18 00:28:18;;;;;;;16.20;6.53;;;;;;;7.33;100.00;95876.44;4969811;28;20215;-71
2023/03/18 00:30:45;;;;;;;13.17;6.40;;;;;;;7.32;100.00;95880.06;4969516;28;20711;-71
2023/03/18 00:33:11;;;;;;;14.93;6.80;;;;;;;7.28;100.00;95878.75;4969632;28;20671;-72
2023/03/18 00:35:38;;;;;;;14.73;6.77;;;;;;;7.27;100.00;95876.31;4969382;28;20750;-71
2023/03/18 00:38:07;;;;;;;19.10;7.30;;;;;;;7.27;100.00;95887.59;4969727;28;20303;-71
2023/03/18 00:40:52;;;;;;;17.70;6.80;;;;;;;7.28;100.00;95878.75;4969537;28;20215;-72
2023/03/18 00:43:21;;;;;;;15.10;6.70;;;;;;;7.22;100.00;95883.00;4969535;28;20514;-71
2023/03/18 00:45:48;;;;;;;15.97;6.47;;;;;;;7.13;100.00;95890.06;4969335;28;20211;-72
2023/03/18 00:48:15;;;;;;;12.63;6.33;;;;;;;7.11;100.00;95883.34;4969539;28;20232;-70
2023/03/18 00:50:41;;;;;;;17.23;6.63;;;;;;;7.03;100.00;95896.47;4969552;28;20600;-71
2023/03/18 00:53:08;;;;;;;17.80;6.60;;;;;;;6.99;100.00;95887.28;4969263;28;20219;-71
2023/03/18 00:55:36;;;;;;;16.20;7.10;;;;;;;6.89;100.00;95895.28;4969281;28;20242;-71
2023/03/18 00:58:02;;;;;;;16.73;7.07;;;;;;;6.72;100.00;95901.50;4969463;28;20219;-72
2023/03/18 01:00:29;;;;;;;16.23;6.80;;;;;;;6.71;100.00;95904.28;4968694;28;20975;-71
2023/03/18 01:02:56;;;;;;;14.73;6.20;;;;;;;6.74;100.00;95903.94;4969442;28;20231;-71
2023/03/18 01:05:23;;;;;;;13.83;5.90;;;;;;;6.66;100.00;95903.94;4969025;28;20254;-71
2023/03/18 01:07:50;;;;;;;15.23;5.60;;;;;;;6.62;100.00;95900.03;4969459;28;20219;-71
2023/03/18 01:10:17;;;;;;;14.97;6.20;;;;;;;6.50;100.00;95901.28;4969164;28;20684;-72
2023/03/18 01:12:46;;;;;;;13.93;5.93;;;;;;;6.61;100.00;95901.00;4969336;28;20234;-72
2023/03/18 01:15:15;;;;;;;15.93;6.53;;;;;;;6.59;100.00;95894.28;4968905;28;20635;-71
2023/03/18 01:17:43;;;;;;;15.43;6.40;;;;;;;6.49;100.00;95894.44;4968086;28;20207;-70
2023/03/18 01:20:11;;;;;;;15.33;6.73;;;;;;;6.53;100.00;95889.69;4969224;28;20261;-71
2023/03/18 01:22:40;;;;;;;11.57;5.83;;;;;;;6.46;100.00;95899.16;4969264;28;20204;-72
2023/03/18 01:25:07;;;;;;;12.47;6.10;;;;;;;6.43;100.00;95899.47;4968725;28;20234;-71
2023/03/18 01:27:34;;;;;;;17.57;5.93;;;;;;;6.43;100.00;95899.47;4968793;28;20559;-71
2023/03/18 01:30:02;;;;;;;14.13;6.13;;;;;;;6.48;100.00;95898.03;4968600;28;20679;-71
2023/03/18 01:32:29;;;;;;;13.57;5.80;;;;;;;6.34;100.00;95900.41;4968780;28;20224;-72
2023/03/18 01:34:55;;;;;;;19.63;6.00;;;;;;;6.30;100.00;95897.31;4968880;28;20200;-71
2023/03/18 01:37:22;;;;;;;14.13;6.20;;;;;;;6.30;100.00;95897.31;4968471;28;20299;-71
2023/03/18 01:39:49;;;;;;;11.77;5.87;;;;;;;6.18;100.00;95895.16;4969023;28;20204;-71
2023/03/18 01:42:17;;;;;;;13.43;5.90;;;;;;;6.15;100.00;95895.47;4968559;28;20228;-71
2023/03/18 01:44:45;;;;;;;13.70;6.33;;;;;;;6.20;100.00;95896.63;4968353;28;20230;-71
2023/03/18 01:47:15;;;;;;;15.47;6.20;;;;;;;6.30;100.00;95897.31;4968794;28;20219;-71
2023/03/18 01:49:45;;;;;;;12.03;5.23;;;;;;;6.21;100.00;95893.06;4968597;28;20212;-71
2023/03/18 01:52:15;;;;;;;13.00;4.67;;;;;;;6.18;100.00;95900.38;4968281;28;20251;-71
2023/03/18 01:54:46;;;;;;;9.33;5.03;;;;;;;6.16;100.00;95897.94;4968441;28;20679;-71
2023/03/18 01:57:16;;;;;;;9.90;4.80;;;;;;;6.03;100.00;95890.69;4968283;28;20291;-70
2023/03/18 01:59:45;;;;;;;15.13;6.13;;;;;;;6.05;100.00;95894.78;4968634;28;20268;-71
2023/03/18 02:02:16;;;;;;;15.60;6.07;;;;;;;6.14;100.00;95893.84;4968274;28;20228;-71
2023/03/18 02:04:45;;;;;;;14.37;6.63;;;;;;;6.04;100.00;95888.72;4968182;28;20239;-71
2023/03/18 02:07:16;;;;;;;14.00;5.50;;;;;;;6.10;100.00;95892.53;4968394;28;20224;-71
2023/03/18 02:09:43;;;;;;;12.83;5.33;;;;;;;5.93;100.00;95884.75;4968208;28;20204;-71
2023/03/18 02:12:12;;;;;;;11.57;5.40;;;;;;;5.97;100.00;95880.84;4968232;28;20653;-72
2023/03/18 02:14:39;;;;;;;14.37;5.60;;;;;;;5.93;100.00;95890.81;4967869;28;20192;-70
2023/03/18 02:17:10;;;;;;;11.63;5.00;;;;;;;6.02;100.00;95896.88;4968273;28;20215;-72
2023/03/18 02:19:50;;;;;;;13.47;5.47;;;;;;;6.00;100.00;95889.22;4968299;28;20199;-70
2023/03/18 02:22:24;;;;;;;14.43;5.80;;;;;;;5.90;100.00;95898.16;4967865;28;20255;-71
2023/03/18 02:24:59;;;;;;;15.50;5.93;;;;;;;5.95;100.00;95888.84;4968046;28;20236;-71
2023/03/18 02:27:29;;;;;;;17.37;5.60;;;;;;;5.86;100.00;95886.38;4967980;28;20973;-70
2023/03/18 02:30:00;;;;;;;14.63;5.57;;;;;;;5.82;100.00;95892.91;4968141;28;20277;-70
2023/03/18 02:32:29;;;;;;;13.23;4.97;;;;;;;5.67;100.00;95889.19;4967591;28;20239;-71
2023/03/18 02:34:59;;;;;;;15.30;5.23;;;;;;;5.66;100.00;95900.63;4967597;28;20644;-70
2023/03/18 02:37:25;;;;;;;13.43;5.73;;;;;;;5.61;100.00;95892.41;4967801;28;20564;-71
2023/03/18 02:39:52;;;;;;;13.23;5.87;;;;;;;5.58;100.00;95903.19;4967812;28;20599;-71
2023/03/18 02:42:29;;;;;;;14.37;6.03;;;;;;;5.78;100.00;95902.00;4967570;28;20647;-71
2023/03/18 02:44:55;;;;;;;13.53;6.07;;;;;;;5.71;100.00;95898.34;4967427;28;20764;-71
2023/03/18 02:47:26;;;;;;;13.57;5.23;;;;;;;5.81;100.00;95901.72;4967655;28;20287;-71
2023/03/18 02:49:54;;;;;;;16.47;5.63;;;;;;;5.61;100.00;95913.31;4967902;28;20215;-71
2023/03/18 02:52:21;;;;;;;11.13;5.70;;;;;;;5.55;100.00;95906.13;4967496;28;20613;-71
2023/03/18 02:54:47;;;;;;;14.93;6.33;;;;;;;5.63;100.00;95908.78;4967488;28;20215;-72
2023/03/18 02:57:14;;;;;;;11.67;5.97;;;;;;;5.44;100.00;95908.97;4967288;28;20216;-71
2023/03/18 02:59:41;;;;;;;13.73;5.93;;;;;;;5.56;100.00;95907.75;4967742;28;20200;-71
2023/03/18 03:02:08;;;;;;;12.73;6.03;;;;;;;5.46;100.00;95901.81;4967550;28;20228;-72
2023/03/18 03:04:35;;;;;;;16.07;6.03;;;;;;;5.23;100.00;95900.69;4967048;28;20224;-72
2023/03/18 03:07:02;;;;;;;14.40;6.07;;;;;;;5.36;100.00;95906.31;4967601;28;20204;-72
2023/03/18 03:09:29;;;;;;;10.83;4.43;;;;;;;5.34;100.00;95915.28;4967308;28;20250;-72
2023/03/18 03:11:56;;;;;;;9.60;4.80;;;;;;;5.34;100.00;95918.72;4967226;28;20773;-72
2023/03/18 03:14:22;;;;;;;11.33;4.43;;;;;;;5.18;100.00;95923.84;4966905;28;20207;-72
2023/03/18 03:16:50;;;;;;;14.87;5.50;;;;;;;5.31;100.00;95918.19;4967471;28;20208;-72
2023/03/18 03:19:17;;;;;;;9.23;4.60;;;;;;;5.12;100.00;95923.63;4967456;28;20211;-72
2023/03/18 03:21:43;;;;;;;9.93;5.07;;;;;;;5.21;100.00;95926.13;4967343;28;20228;-72
2023/03/18 03:24:10;;;;;;;11.70;5.20;;;;;;;5.37;100.00;95930.66;4966846;28;20691;-72
2023/03/18 03:26:36;;;;;;;14.73;5.90;;;;;;;5.53;100.00;95928.97;4967084;28;20210;-72
2023/03/18 03:29:04;;;;;;;21.80;6.50;;;;;;;5.60;100.00;95924.75;4967087;28;20216;-72
2023/03/18 03:31:30;;;;;;;14.07;5.97;;;;;;;5.58;100.00;95926.72;4967275;28;20348;-71
2023/03/18 03:33:58;;;;;;;14.07;6.47;;;;;;;5.65;100.00;95933.78;4967038;28;20579;-72
2023/03/18 03:36:25;;;;;;;12.20;5.40;;;;;;;5.63;100.00;95934.91;4967112;28;20208;-72
2023/03/18 03:38:51;;;;;;;15.73;6.87;;;;;;;5.63;100.00;95940.94;4966904;28;20231;-72
2023/03/18 03:41:18;;;;;;;15.30;6.10;;;;;;;5.51;100.00;95938.75;4966200;28;20238;-72
2023/03/18 03:43:45;;;;;;;12.87;5.97;;;;;;;5.46;100.00;95943.63;4965604;28;20816;-72
2023/03/18 03:46:12;;;;;;;13.50;5.87;;;;;;;5.57;100.00;95943.34;4966782;28;20227;-71
2023/03/18 03:48:39;;;;;;;12.43;5.90;;;;;;;5.49;100.00;95938.91;4966877;28;20223;-72
2023/03/18 03:53:35;;;;;;;14.40;6.67;;;;;;;5.50;100.00;95948.38;5125290;28;20198;-69
2023/03/18 03:56:03;;;;;;;12.57;5.60;;;;;;;5.46;100.00;95949.66;5127426;28;20198;-66
2023/03/18 03:58:29;;;;;;;12.57;5.23;;;;;;;5.42;100.00;95952.72;5124980;28;20205;-69
2023/03/18 04:00:56;;;;;;;11.17;5.53;;;;;;;5.26;100.00;95959.66;5116544;28;20218;-71
2023/03/18 04:03:22;;;;;;;17.87;6.70;;;;;;;5.31;100.00;95954.75;5108634;28;20206;-68
2023/03/18 04:05:49;;;;;;;12.70;4.93;;;;;;;5.29;100.00;95967.97;5107691;28;20222;-69
2023/03/18 04:08:15;;;;;;;13.17;5.53;;;;;;;5.17;100.00;95973.59;5108348;28;20229;-69
2023/03/18 04:10:43;;;;;;;11.80;5.93;;;;;;;5.33;100.00;95966.69;5108385;28;20209;-69
2023/03/18 04:13:10;;;;;;;11.23;5.47;;;;;;;5.29;100.00;95970.59;5108397;28;20210;-70
2023/03/18 04:15:37;;;;;;;11.27;5.07;;;;;;;5.10;100.00;95968.13;5108259;28;20217;-69
2023/03/18 04:18:05;;;;;;;11.50;5.23;;;;;;;5.12;100.00;95961.00;5107974;28;20207;-67
2023/03/18 04:20:34;;;;;;;11.53;4.90;;;;;;;5.23;100.00;95963.38;5107225;28;20725;-67
2023/03/18 04:23:00;;;;;;;11.33;5.63;;;;;;;5.19;100.00;95961.19;5108818;28;20269;-69
2023/03/18 04:25:26;;;;;;;11.10;5.10;;;;;;;5.11;100.00;95961.16;5107483;28;20224;-68
2023/03/18 04:27:55;;;;;;;11.27;5.77;;;;;;;5.27;100.00;95964.72;5107571;28;20694;-68
2023/03/18 04:30:24;;;;;;;16.33;5.30;;;;;;;5.16;100.00;95956.28;5107612;28;20851;-68
2023/03/18 04:32:51;;;;;;;13.07;5.70;;;;;;;5.15;100.00;95959.88;5107904;28;20211;-69
2023/03/18 04:35:17;;;;;;;17.63;6.80;;;;;;;5.12;100.00;95963.59;5108013;28;20678;-70
2023/03/18 04:37:44;;;;;;;10.00;4.47;;;;;;;5.14;100.00;95961.66;5108154;28;20203;-67
2023/03/18 04:40:12;;;;;;;12.17;5.70;;;;;;;5.19;100.00;95962.00;5107830;28;20203;-67
2023/03/18 04:42:38;;;;;;;12.30;4.80;;;;;;;5.09;100.00;95961.31;5108153;28;20306;-68
2023/03/18 04:45:07;;;;;;;11.53;4.97;;;;;;;5.20;100.00;95961.03;5107570;28;20601;-69
2023/03/18 04:47:34;;;;;;;13.57;6.07;;;;;;;5.05;100.00;95973.03;5107687;28;20200;-69
2023/03/18 04:50:03;;;;;;;13.47;5.33;;;;;;;5.11;100.00;95972.41;5108515;28;20207;-69
2023/03/18 04:52:30;;;;;;;12.03;5.13;;;;;;;5.07;100.00;95968.44;5087321;28;20236;-69
2023/03/18 04:54:56;;;;;;;16.50;5.13;;;;;;;5.04;100.00;95975.75;5072668;28;20212;-68
2023/03/18 04:57:23;;;;;;;11.50;4.67;;;;;;;5.10;100.00;95975.97;5072665;28;20216;-69
2023/03/18 04:59:49;;;;;;;10.83;5.20;;;;;;;5.02;100.00;95965.47;5071822;28;20212;-69
2023/03/18 05:02:18;;;;;;;10.03;5.00;;;;;;;5.09;100.00;95965.69;5072405;28;20228;-69
2023/03/18 05:04:44;;;;;;;8.43;4.60;;;;;;;4.99;100.00;95965.78;5071892;28;20228;-69
2023/03/18 05:07:13;;;;;;;11.87;5.00;;;;;;;5.05;100.00;95967.78;5072950;28;20208;-68
2023/03/18 05:09:40;;;;;;;12.03;5.57;;;;;;;5.02;100.00;95968.06;5071546;28;20564;-67
2023/03/18 05:12:12;;;;;;;11.73;4.93;;;;;;;5.03;100.00;95971.53;5072121;28;20220;-68
2023/03/18 05:14:38;;;;;;;10.13;4.30;;;;;;;4.98;100.00;95968.53;5071900;28;20449;-67
2023/03/18 05:17:05;;;;;;;9.63;4.50;;;;;;;4.92;100.00;95966.53;5071770;28;20212;-68
2023/03/18 05:19:33;;;;;;;7.40;4.03;;;;;;;4.99;100.00;95965.78;5079314;28;20208;-69
2023/03/18 05:21:59;;;;;;;11.57;4.60;;;;;;;4.90;100.00;95958.84;5071530;28;20228;-68
2023/03/18 05:24:26;;;;;;;9.77;4.57;;;;;;;4.87;100.00;95960.91;5076648;28;20211;-69
2023/03/18 05:26:53;;;;;;;10.17;3.60;;;;;;;4.88;100.00;95957.34;5071274;28;20579;-68
2023/03/18 05:29:19;;;;;;;9.77;4.47;;;;;;;4.84;100.00;95956.81;5071635;28;20204;-68
2023/03/18 05:31:46;;;;;;;8.73;4.27;;;;;;;4.85;100.00;95961.06;5071166;28;20220;-69
2023/03/18 05:34:12;;;;;;;6.67;3.70;;;;;;;4.86;100.00;95965.34;5070856;28;20216;-67
2023/03/18 05:36:40;;;;;;;8.73;4.07;;;;;;;4.94;100.00;95962.78;5070961;28;20676;-69
2023/03/18 05:39:07;;;;;;;6.43;3.77;;;;;;;4.80;100.00;95969.50;5071516;28;20205;-69
2023/03/18 05:41:34;;;;;;;7.93;4.50;;;;;;;4.71;100.00;95973.00;5070668;28;20236;-69
2023/03/18 05:44:00;;;;;;;9.20;5.10;;;;;;;4.78;100.00;95981.88;5076146;28;20211;-69
2023/03/18 05:46:27;;;;;;;8.03;4.70;;;;;;;4.81;100.00;95982.38;5071535;28;20311;-69
2023/03/18 05:48:54;;;;;;;9.30;3.40;;;;;;;4.88;100.00;95979.03;5071544;28;20204;-69
2023/03/18 05:51:21;;;;;;;13.13;5.53;;;;;;;4.80;100.00;95985.16;5074107;28;20307;-69
2023/03/18 05:53:49;;;;;;;9.00;4.47;;;;;;;4.82;100.00;95975.41;5109268;28;20689;-70
2023/03/18 05:56:17;;;;;;;10.43;4.93;;;;;;;4.86;100.00;95982.75;5109720;28;20288;-69
2023/03/18 05:58:43;;;;;;;11.70;5.33;;;;;;;4.90;100.00;95977.13;5110233;28;20203;-69
2023/03/18 06:01:10;;;;;;;12.40;5.70;;;;;;;4.93;100.00;95982.03;5109712;28;20231;-70
2023/03/18 06:03:37;;;;;;;13.60;6.00;;;;;;;5.11;100.00;95977.63;5109225;28;20199;-68
2023/03/18 06:06:03;;;;;;;13.30;6.07;;;;;;;5.26;100.00;95978.72;5109221;28;20230;-69
2023/03/18 06:08:30;;;;;;;16.10;5.60;;;;;;;5.28;100.00;95981.19;5109472;28;20203;-70
2023/03/18 06:10:58;;;;;;;11.10;5.63;;;;;;;5.37;100.00;95978.47;5109590;28;20638;-68
2023/03/18 06:13:24;;;;;;;12.93;5.63;;;;;;;5.16;100.00;95978.00;5109068;28;20315;-69
2023/03/18 06:15:56;;;;;;;15.97;5.73;;;;;;;5.34;100.00;95976.19;5109279;28;20286;-70
2023/03/18 06:18:23;;;;;;;14.13;6.53;;;;;;;5.37;100.00;95973.25;5109590;28;20195;-69
2023/03/18 06:20:49;;;;;;;12.30;6.00;;;;;;;5.42;100.00;95978.84;5109283;28;20565;-70
2023/03/18 06:23:17;;;;;;;14.07;6.50;;;;;;;5.42;100.00;95983.25;5109338;28;20207;-68
2023/03/18 06:25:45;;;;;;;13.67;6.43;;;;;;;5.49;100.00;95990.34;5108397;28;20803;-69
2023/03/18 06:28:13;;;;;;;14.00;5.73;;;;;;;5.59;100.00;95985.84;5109678;28;20203;-69
2023/03/18 06:30:40;;;;;;;10.60;5.27;;;;;;;5.66;100.00;95982.44;5108234;28;20259;-69
2023/03/18 06:33:07;;;;;;;14.87;7.07;;;;;;;5.82;100.00;95981.78;5109931;28;20290;-69
2023/03/18 06:35:34;;;;;;;10.93;5.20;;;;;;;5.85;100.00;95976.25;5108108;28;20220;-69
2023/03/18 06:38:01;;;;;;;9.67;5.00;;;;;;;5.93;100.00;95978.91;5109547;28;20203;-68
2023/03/18 06:40:28;;;;;;;12.33;5.27;;;;;;;5.98;100.00;95981.88;5109039;28;20223;-69
2023/03/18 06:42:54;;;;;;;12.43;6.17;;;;;;;6.11;100.00;95980.47;5109477;28;20658;-68
2023/03/18 06:45:22;;;;;;;10.77;5.13;;;;;;;6.12;100.00;95980.31;5108012;28;20223;-69
2023/03/18 06:47:49;;;;;;;12.10;5.30;;;;;;;6.23;100.00;95980.03;5109454;28;20247;-69
2023/03/18 06:50:16;;;;;;;15.03;5.10;;;;;;;6.40;100.00;95987.00;5107636;28;20657;-69
2023/03/18 06:52:42;;;;;;;14.70;5.07;;;;;;;6.49;100.00;95983.41;5108662;28;20625;-69
2023/03/18 06:55:09;;;;;;;12.97;5.73;;;;;;;6.57;100.00;95980.00;5108697;28;20215;-69
2023/03/18 06:57:36;;;;;;;11.00;4.80;;;;;;;6.66;100.00;95985.09;5108605;28;20200;-69
2023/03/18 07:00:03;;;;;;;10.07;5.37;;;;;;;6.70;100.00;95989.03;5108816;28;20202;-69
2023/03/18 07:02:31;;;;;;;12.77;5.87;;;;;;;6.88;100.00;95994.97;5108194;28;20225;-69
2023/03/18 07:04:58;;;;;;;10.43;5.87;;;;;;;6.77;100.00;95990.88;5108699;28;20214;-69
2023/03/18 07:07:25;;;;;;;13.17;4.87;;;;;;;6.95;100.00;95995.97;5108130;28;20219;-69
2023/03/18 07:09:51;;;;;;;9.57;4.97;;;;;;;7.03;100.00;95990.75;5109084;28;20199;-69
2023/03/18 07:12:18;;;;;;;12.60;6.00;;;;;;;7.07;100.00;95994.69;5107854;28;20227;-70
2023/03/18 07:14:45;;;;;;;15.60;7.07;;;;;;;7.14;100.00;95995.66;5108046;28;20199;-69
2023/03/18 07:17:13;;;;;;;17.17;8.27;;;;;;;7.16;100.00;95991.09;5108221;28;20206;-68
2023/03/18 07:19:41;;;;;;;17.03;7.60;;;;;;;7.36;100.00;95995.88;5108722;28;20231;-69
2023/03/18 07:22:07;;;;;;;16.53;8.13;;;;;;;7.27;100.00;96004.72;5108258;28;20223;-70
2023/03/18 07:24:34;;;;;;;46.10;14.83;;;;;;;7.38;100.00;96004.38;5108295;28;20666;-70
2023/03/18 07:27:01;;;;;;;16.67;6.73;;;;;;;7.47;100.00;96009.47;5108040;28;20223;-70
2023/03/18 07:29:28;;;;;;;15.73;6.87;;;;;;;7.64;100.00;96008.47;5107757;28;20722;-69
2023/03/18 07:31:54;;;;;;;34.17;12.53;;;;;;;7.91;100.00;96013.38;5107911;28;20222;-70
2023/03/18 07:34:21;;;;;;;47.33;15.90;;;;;;;8.05;99.65;96000.38;5107706;28;20214;-69
2023/03/18 07:36:49;;;;;;;37.40;13.53;;;;;;;8.26;97.10;95997.25;5108366;28;20203;-69
2023/03/18 07:39:15;;;;;;;91.77;26.93;;;;;;;8.41;95.14;96001.63;5107922;28;20704;-69
2023/03/18 07:41:42;;;;;;;71.50;21.47;;;;;;;8.64;92.95;96000.72;5107983;28;20249;-70
2023/03/18 07:44:09;;;;;;;26.33;8.57;;;;;;;8.89;91.13;96001.44;5106923;28;20210;-69
2023/03/18 07:46:35;;;;;;;17.53;6.27;;;;;;;9.12;88.32;96003.09;5107765;28;20243;-69
2023/03/18 07:49:02;;;;;;;8.70;4.10;;;;;;;9.32;86.31;96005.09;5107735;28;20195;-70
2023/03/18 07:51:29;;;;;;;15.30;4.80;;;;;;;9.47;86.52;95998.09;5101488;28;20307;-69
2023/03/18 07:53:57;;;;;;;10.20;4.30;;;;;;;9.70;86.23;95999.69;5069009;28;20723;-70
2023/03/18 07:56:24;;;;;;;15.77;4.60;;;;;;;9.78;85.83;96010.16;5069103;28;20200;-70
2023/03/18 07:58:51;;;;;;;12.30;3.77;;;;;;;9.92;85.72;96009.38;5069155;28;20208;-69
2023/03/18 08:01:18;;;;;;;6.30;3.43;;;;;;;9.97;84.54;96012.31;5074470;28;20228;-69
2023/03/18 08:03:45;;;;;;;8.80;3.80;;;;;;;10.14;85.15;96008.53;5067337;28;20258;-70
2023/03/18 08:06:12;;;;;;;10.53;4.00;;;;;;;10.15;83.25;96009.34;5068199;28;20224;-69
2023/03/18 08:08:39;;;;;;;7.77;3.33;;;;;;;10.27;81.18;96011.34;5068947;28;20197;-69
2023/03/18 08:11:08;;;;;;;12.23;4.53;;;;;;;10.41;79.95;96011.38;5068442;28;20231;-69
2023/03/18 08:13:34;;;;;;;22.17;6.30;;;;;;;10.51;78.53;96011.09;5068634;28;20250;-69
2023/03/18 08:16:01;;;;;;;12.37;3.80;;;;;;;10.65;77.91;96005.00;5068205;28;20302;-69
2023/03/18 08:18:27;;;;;;;9.23;3.87;;;;;;;10.67;77.73;96013.56;5068671;28;20683;-69
2023/03/18 08:20:54;;;;;;;14.20;4.27;;;;;;;10.81;77.87;96016.16;5069057;28;20719;-69
2023/03/18 08:23:20;;;;;;;8.43;3.73;;;;;;;10.89;79.03;96018.69;5069002;28;20209;-69
2023/03/18 08:25:48;;;;;;;23.23;6.40;;;;;;;11.15;79.12;96017.19;5069238;28;20235;-69
2023/03/18 08:28:17;;;;;;;5.60;3.07;;;;;;;11.44;78.35;96024.22;5072893;28;20204;-69
2023/03/18 08:30:43;;;;;;;8.10;4.07;;;;;;;11.43;77.64;96023.41;5072468;28;20204;-71
2023/03/18 08:33:10;;;;;;;12.10;3.40;;;;;;;11.54;77.42;96019.47;5072235;28;20200;-70
2023/03/18 08:35:39;;;;;;;6.50;2.80;;;;;;;11.64;76.90;96018.16;5076970;28;20215;-70
2023/03/18 08:38:06;;;;;;;8.07;3.30;;;;;;;11.57;77.13;96012.00;5077533;28;20224;-68
2023/03/18 08:40:33;;;;;;;6.20;3.23;;;;;;;11.70;76.08;96025.31;5072282;28;20211;-69
2023/03/18 08:43:00;;;;;;;7.83;3.33;;;;;;;11.82;73.86;96014.03;5072130;28;20208;-68
2023/03/18 08:45:28;;;;;;;7.13;3.20;;;;;;;12.16;72.76;96014.94;5071992;28;20216;-70
2023/03/18 08:47:54;;;;;;;6.43;3.10;;;;;;;12.21;70.38;96017.03;5072329;28;20220;-70
2023/03/18 08:50:21;;;;;;;11.77;4.07;;;;;;;12.22;71.00;96019.47;5072608;28;20201;-70
2023/03/18 08:52:48;;;;;;;7.37;3.20;;;;;;;12.43;70.52;96011.47;5102759;28;20325;-70
2023/03/18 08:55:15;;;;;;;5.60;3.33;;;;;;;12.61;69.53;96017.06;5110203;28;20199;-68
2023/03/18 08:57:41;;;;;;;7.27;3.60;;;;;;;12.77;71.31;96009.66;5111374;28;20210;-70
2023/03/18 09:00:10;;;;;;;9.27;3.60;;;;;;;12.82;67.84;96007.25;5110776;28;20618;-69
2023/03/18 09:02:38;;;;;;;7.07;3.77;;;;;;;12.97;69.82;96007.13;5111118;28;21225;-70
2023/03/18 09:05:05;;;;;;;8.30;4.17;;;;;;;13.05;67.89;96006.97;5110349;28;20207;-68
2023/03/18 09:07:32;;;;;;;11.10;4.27;;;;;;;13.16;68.65;96003.75;5111099;28;20231;-70
2023/03/18 09:09:59;;;;;;;8.50;3.70;;;;;;;13.38;67.83;96005.25;5110356;28;20207;-69
2023/03/18 09:12:25;;;;;;;13.93;3.93;;;;;;;13.36;67.92;96002.00;5111676;28;20223;-68
2023/03/18 09:14:52;;;;;;;8.93;3.90;;;;;;;13.34;67.29;95996.06;5110456;28;20201;-70
2023/03/18 09:17:18;;;;;;;9.87;3.73;;;;;;;13.53;68.05;96002.25;5110905;28;20195;-69
2023/03/18 09:19:50;;;;;;;12.38;3.70;;;;;;;13.83;66.16;95992.91;5110550;28;20671;-69
2023/03/18 09:22:17;;;;;;;9.13;3.83;;;;;;;13.80;64.16;95998.63;5110251;28;20254;-71
2023/03/18 09:24:43;;;;;;;8.80;4.10;;;;;;;13.91;64.94;95998.00;5110779;28;20234;-71
2023/03/18 09:27:10;;;;;;;9.15;3.92;;;;;;;14.08;64.10;95999.28;5110541;28;20226;-70
2023/03/18 09:29:36;;;;;;;11.57;3.88;;;;;;;13.98;63.29;95999.63;5110819;28;20670;-71
2023/03/18 09:32:03;;;;;;;9.48;3.80;;;;;;;14.10;64.02;95998.06;5110419;28;20234;-71
2023/03/18 09:34:29;;;;;;;8.52;3.00;;;;;;;14.29;59.83;96001.72;5110178;28;20211;-70
2023/03/18 09:36:58;;;;;;;5.90;2.73;;;;;;;14.40;60.10;95996.59;5109585;28;20241;-70
2023/03/18 09:39:24;;;;;;;8.00;3.00;;;;;;;14.50;62.49;95991.69;5109722;28;20252;-68
2023/03/18 09:42:07;;;;;;;6.95;3.10;;;;;;;14.54;61.14;95987.59;5109927;28;20223;-69
2023/03/18 09:44:35;;;;;;;7.40;3.00;;;;;;;14.41;61.96;95986.81;5110358;28;20215;-70
2023/03/18 09:47:18;;;;;;;6.82;3.17;;;;;;;14.66;61.58;95984.13;5109684;28;20219;-70
2023/03/18 09:49:56;;;;;;;5.85;3.15;;;;;;;14.82;60.38;95982.84;5110601;28;20282;-68
2023/03/18 09:52:27;;;;;;;6.85;3.28;;;;;;;14.68;60.85;95982.06;5089834;28;20231;-70
2023/03/18 09:55:01;;;;;;;5.60;2.90;;;;;;;14.93;60.63;95982.19;5071391;28;20667;-71
2023/03/18 09:57:32;;;;;;;5.30;2.78;;;;;;;15.06;61.35;95976.81;5071074;28;20201;-72
2023/03/18 10:00:05;;;;;;;8.60;3.50;;;;;;;15.18;63.09;95980.47;5070852;28;20196;-70
2023/03/18 10:02:36;;;;;;;7.07;3.60;;;;;;;15.21;60.11;95986.22;5071259;28;20231;-70
2023/03/18 10:05:06;;;;;;;6.32;2.70;;;;;;;15.28;57.44;95981.66;5080124;28;20204;-70
2023/03/18 10:07:40;;;;;;;5.70;2.78;;;;;;;15.48;58.99;95979.75;5071551;28;20212;-72
2023/03/18 10:10:11;;;;;;;8.25;3.15;;;;;;;15.23;57.87;95978.03;5077560;28;20222;-72
2023/03/18 10:12:44;;;;;;;9.27;3.40;;;;;;;15.25;56.97;95974.13;5079408;28;20588;-69
2023/03/18 10:15:16;;;;;;;5.43;3.00;;;;;;;15.41;56.97;95969.16;5070072;28;20204;-69
2023/03/18 10:17:48;;;;;;;7.13;3.10;;;;;;;15.58;56.46;95974.75;5075910;28;20204;-70
2023/03/18 10:20:18;;;;;;;7.60;2.85;;;;;;;15.62;56.46;95973.31;5072458;28;20227;-70
2023/03/18 10:23:03;;;;;;;6.78;3.40;;;;;;;15.74;54.77;95958.31;5080612;28;20225;-71
2023/03/18 10:25:36;;;;;;;5.30;2.97;;;;;;;15.81;55.59;95959.91;5075160;28;20283;-70
2023/03/18 10:28:40;;;;;;;6.75;2.97;;;;;;;16.11;54.57;95956.38;5074514;28;20281;-69
2023/03/18 10:31:16;;;;;;;5.22;2.67;;;;;;;16.28;55.74;95957.50;5007582;28;20305;-71
2023/03/18 10:33:47;;;;;;;6.57;3.08;;;;;;;16.36;54.30;95957.22;5063767;28;20215;-70
2023/03/18 10:36:19;;;;;;;7.55;2.75;;;;;;;16.34;56.68;95956.59;5070194;28;20204;-70
2023/03/18 10:38:49;;;;;;;5.47;2.75;;;;;;;16.35;55.51;95952.91;5069929;28;20204;-70
2023/03/18 10:41:20;;;;;;;7.78;3.08;;;;;;;16.58;53.44;95950.44;5072833;28;20275;-70
2023/03/18 10:43:48;;;;;;;5.88;2.58;;;;;;;16.76;52.06;95945.97;5069787;28;20205;-70
2023/03/18 10:46:18;;;;;;;6.10;2.90;;;;;;;17.00;49.66;95949.56;5069865;28;20208;-70
2023/03/18 10:48:48;;;;;;;5.35;2.58;;;;;;;17.22;50.15;95943.53;5078038;28;20207;-69
2023/03/18 10:51:19;;;;;;;4.25;2.22;;;;;;;17.12;53.11;95937.94;5071689;28;20714;-69
2023/03/18 10:53:56;;;;;;;4.63;2.00;;;;;;;17.31;50.04;95935.06;5069700;28;20216;-71
2023/03/18 10:56:23;;;;;;;7.75;2.28;;;;;;;16.99;47.56;95932.75;5073269;28;20229;-70
2023/03/18 10:58:51;;;;;;;8.43;2.80;;;;;;;17.26;47.88;95932.25;5070937;28;20204;-70
2023/03/18 11:01:19;;;;;;;4.82;1.63;;;;;;;17.56;44.77;95929.59;5069835;28;20258;-70
2023/03/18 11:03:51;;;;;;;2.65;1.10;;;;;;;17.88;41.80;95926.41;5069641;28;20199;-70
2023/03/18 11:06:23;;;;;;;3.33;1.20;;;;;;;17.91;43.88;95933.97;5069220;28;20204;-70
2023/03/18 11:09:00;;;;;;;3.55;1.80;;;;;;;17.68;42.24;95933.09;5072543;28;20246;-70
2023/03/18 11:11:31;;;;;;;5.05;1.50;;;;;;;17.67;41.98;95929.63;5069550;28;20231;-70
2023/03/18 11:14:00;;;;;;;3.22;1.52;;;;;;;17.77;42.85;95924.56;5069086;28;20258;-70
2023/03/18 11:16:30;;;;;;;6.75;2.00;;;;;;;18.11;41.79;95913.13;5069864;28;20207;-70
2023/03/18 11:18:58;;;;;;;2.53;1.52;;;;;;;18.03;42.29;95918.78;5069507;28;20622;-69
2023/03/18 11:21:27;;;;;;;3.65;1.55;;;;;;;18.28;40.13;95917.56;5074099;28;20248;-69
2023/03/18 11:24:09;;;;;;;7.43;2.33;;;;;;;17.76;42.59;95926.38;5069875;28;20212;-70
2023/03/18 11:26:54;;;;;;;3.03;1.77;;;;;;;17.71;42.21;95928.13;5069809;28;20192;-70
2023/03/18 11:29:24;;;;;;;5.30;2.00;;;;;;;17.90;42.09;95930.47;5073830;28;20208;-71
2023/03/18 11:31:57;;;;;;;3.67;1.90;;;;;;;18.00;43.72;95916.59;5072405;28;20228;-71
2023/03/18 11:34:24;;;;;;;6.60;1.77;;;;;;;18.03;43.41;95924.13;5070402;28;20200;-69
2023/03/18 11:36:57;;;;;;;5.30;2.03;;;;;;;18.21;42.78;95918.72;5072360;28;20204;-71